Time;durP1;ratioP1;P1;durP2;ratioP2;P2;SDS_P1;SDS_P2;PMS_P1;PMS_P2;Temp;Humidity;BMP_temperature;BMP_pressure;BME280_temperature;BME280_humidity;BME280_pressure;Samples;Min_cycle;Max_cycle;Signal;HPM_P1;HPM_P2
2020/12/10 00:04:55;;;;;;;35.38;18.10;;;;;;;-1.89;100.00;100195.22;10174091;29;20055;-71
2020/12/10 00:09:57;;;;;;;38.15;21.35;;;;;;;-1.84;100.00;100203.81;10182072;29;20048;-71
2020/12/10 00:14:58;;;;;;;34.80;21.27;;;;;;;-1.96;100.00;100185.78;10180961;29;20040;-71
2020/12/10 00:19:59;;;;;;;37.25;20.73;;;;;;;-1.90;100.00;100196.09;10181699;29;20055;-71
2020/12/10 00:25:02;;;;;;;35.55;19.77;;;;;;;-1.83;100.00;100196.94;10181101;29;20158;-71
2020/12/10 00:30:10;;;;;;;34.92;19.25;;;;;;;-1.83;100.00;100194.34;10179630;29;20518;-71
2020/12/10 00:35:11;;;;;;;30.30;17.13;;;;;;;-1.81;100.00;100188.34;10179418;29;20040;-71
2020/12/10 00:40:12;;;;;;;37.28;22.50;;;;;;;-1.82;100.00;100181.44;10179993;29;20044;-71
2020/12/10 00:45:14;;;;;;;35.85;21.10;;;;;;;-1.80;100.00;100184.91;10180112;29;20146;-71
2020/12/10 00:50:15;;;;;;;35.30;20.40;;;;;;;-1.72;100.00;100184.88;10180519;29;20484;-71
2020/12/10 00:55:17;;;;;;;35.15;19.08;;;;;;;-1.69;100.00;100182.31;10193611;29;20080;-72
2020/12/10 01:00:20;;;;;;;36.22;18.98;;;;;;;-1.67;100.00;100173.69;10205544;29;20138;-72
2020/12/10 01:05:21;;;;;;;39.05;22.05;;;;;;;-1.73;100.00;100167.66;10178449;29;20044;-71
2020/12/10 01:10:22;;;;;;;40.15;22.35;;;;;;;-1.83;100.00;100159.06;10179868;29;20040;-71
2020/12/10 01:15:23;;;;;;;36.50;20.13;;;;;;;-1.79;100.00;100162.53;10178534;29;20044;-71
2020/12/10 01:20:25;;;;;;;37.15;21.45;;;;;;;-1.76;100.00;100160.81;10180070;29;20056;-72
2020/12/10 01:25:26;;;;;;;34.85;20.15;;;;;;;-1.77;100.00;100153.94;10176559;29;20056;-71
2020/12/10 01:30:27;;;;;;;33.88;19.13;;;;;;;-1.78;100.00;100159.09;10177499;29;20099;-71
2020/12/10 01:35:29;;;;;;;36.58;21.23;;;;;;;-1.67;100.00;100154.75;10178034;29;20058;-71
2020/12/10 01:40:30;;;;;;;40.50;21.60;;;;;;;-1.74;100.00;100153.03;10177918;29;20051;-71
2020/12/10 01:45:31;;;;;;;36.72;22.15;;;;;;;-1.83;100.00;100135.84;10176464;29;20051;-71
2020/12/10 01:50:32;;;;;;;35.65;19.73;;;;;;;-1.84;100.00;100135.88;10167967;29;20409;-71
2020/12/10 01:55:33;;;;;;;31.98;19.02;;;;;;;-1.88;100.00;100137.59;10145576;29;20053;-71
2020/12/10 02:00:34;;;;;;;34.78;19.38;;;;;;;-1.88;100.00;100136.72;10174084;29;20044;-71
2020/12/10 02:05:43;;;;;;;33.75;20.02;;;;;;;-1.92;100.00;100141.88;10177417;29;20059;-71
2020/12/10 02:10:44;;;;;;;35.13;19.42;;;;;;;-1.95;100.00;100141.91;10176232;29;20043;-71
2020/12/10 02:15:47;;;;;;;31.27;18.35;;;;;;;-1.97;100.00;100135.00;10176547;29;20464;-72
2020/12/10 02:20:49;;;;;;;38.33;21.10;;;;;;;-2.00;100.00;100129.84;10176590;29;20056;-71
2020/12/10 02:25:50;;;;;;;38.15;21.55;;;;;;;-2.05;100.00;100129.84;10166083;29;20464;-71
2020/12/10 02:30:51;;;;;;;36.22;21.25;;;;;;;-2.20;100.00;100104.06;10175164;29;20041;-71
2020/12/10 02:35:52;;;;;;;38.25;21.90;;;;;;;-2.20;100.00;100106.66;10176815;29;20047;-71
2020/12/10 02:40:53;;;;;;;35.95;21.30;;;;;;;-2.18;100.00;100109.25;10174737;29;20044;-71
2020/12/10 02:45:54;;;;;;;37.90;22.08;;;;;;;-2.03;100.00;100117.81;10176040;29;20055;-71
2020/12/10 02:51:00;;;;;;;42.28;22.98;;;;;;;-1.92;100.00;100121.22;10175347;29;20052;-71
2020/12/10 02:56:12;;;;;;;40.58;20.98;;;;;;;-1.93;100.00;100098.88;10165821;29;20523;-71
2020/12/10 03:01:14;;;;;;;41.70;22.73;;;;;;;-1.92;100.00;100074.75;10169197;29;20500;-71
2020/12/10 03:06:15;;;;;;;40.63;22.35;;;;;;;-2.00;100.00;100079.09;10145529;29;20054;-71
2020/12/10 03:11:16;;;;;;;41.03;22.15;;;;;;;-2.07;100.00;100067.06;10175861;29;20063;-71
2020/12/10 03:16:17;;;;;;;34.88;21.38;;;;;;;-2.09;100.00;100073.94;10175362;29;20388;-72
2020/12/10 03:21:18;;;;;;;41.05;21.98;;;;;;;-2.06;100.00;100073.09;10173525;29;20048;-72
2020/12/10 03:26:19;;;;;;;39.38;21.45;;;;;;;-2.14;100.00;100065.34;10172301;29;20067;-72
2020/12/10 03:31:20;;;;;;;37.70;20.85;;;;;;;-2.16;100.00;100063.63;10175539;29;20511;-71
2020/12/10 03:36:22;;;;;;;42.97;24.35;;;;;;;-2.16;100.00;100069.66;10172158;29;20040;-71
2020/12/10 03:41:23;;;;;;;38.35;21.83;;;;;;;-2.26;100.00;100070.56;10174223;29;20044;-71
2020/12/10 03:46:25;;;;;;;33.70;20.83;;;;;;;-2.25;100.00;100063.66;10172820;29;20123;-71
2020/12/10 03:51:26;;;;;;;35.05;21.08;;;;;;;-2.36;100.00;100049.06;10173803;29;20120;-72
2020/12/10 03:56:30;;;;;;;33.25;18.70;;;;;;;-2.45;100.00;100048.22;10190479;29;20090;-72
2020/12/10 04:01:32;;;;;;;37.97;19.75;;;;;;;-2.43;100.00;100051.66;10192650;29;20076;-72
2020/12/10 04:06:35;;;;;;;35.88;20.92;;;;;;;-2.46;100.00;100054.22;10174162;29;20457;-72
2020/12/10 04:11:37;;;;;;;40.20;21.42;;;;;;;-2.42;100.00;100055.94;10172815;29;20036;-72
2020/12/10 04:16:38;;;;;;;35.63;20.02;;;;;;;-2.39;100.00;100061.09;10172139;29;20052;-71
2020/12/10 04:21:39;;;;;;;36.17;20.55;;;;;;;-2.45;100.00;100036.19;10172914;29;20127;-72
2020/12/10 04:26:40;;;;;;;37.20;21.35;;;;;;;-2.33;100.00;100050.75;10171325;29;20067;-72
2020/12/10 04:31:41;;;;;;;40.08;22.85;;;;;;;-2.35;100.00;100045.63;10172924;29;20077;-71
2020/12/10 04:36:47;;;;;;;41.25;22.90;;;;;;;-2.33;100.00;100058.50;10173460;29;20047;-72
2020/12/10 04:41:48;;;;;;;36.70;21.70;;;;;;;-2.32;100.00;100050.75;10179710;29;20147;-72
2020/12/10 04:46:50;;;;;;;44.55;23.25;;;;;;;-2.36;100.00;100036.16;10180257;29;20051;-71
2020/12/10 04:51:53;;;;;;;42.50;23.45;;;;;;;-2.28;100.00;100033.56;10180658;29;20411;-71
2020/12/10 04:56:54;;;;;;;42.10;22.25;;;;;;;-2.32;100.00;100035.28;10179364;29;20041;-72
2020/12/10 05:01:55;;;;;;;41.75;22.00;;;;;;;-2.21;100.00;100047.31;10177739;29;20396;-72
2020/12/10 05:06:57;;;;;;;41.65;22.75;;;;;;;-2.17;100.00;100042.13;10179993;29;20040;-71
2020/12/10 05:11:59;;;;;;;44.65;23.88;;;;;;;-2.18;100.00;100047.31;10177739;29;20767;-71
2020/12/10 05:17:12;;;;;;;38.20;22.00;;;;;;;-2.12;100.00;100053.31;10164240;29;20385;-71
2020/12/10 05:22:13;;;;;;;42.05;22.85;;;;;;;-2.16;100.00;100049.00;10174828;29;20484;-72
2020/12/10 05:27:23;;;;;;;47.17;24.88;;;;;;;-2.26;100.00;100042.19;10155809;29;20056;-71
2020/12/10 05:32:42;;;;;;;45.53;24.63;;;;;;;-2.16;100.00;100050.72;10177969;29;20051;-71
2020/12/10 05:37:44;;;;;;;45.17;24.30;;;;;;;-2.23;100.00;100044.72;10175274;29;20400;-71
2020/12/10 05:42:47;;;;;;;43.97;23.65;;;;;;;-2.31;100.00;100051.63;10174269;29;20044;-71
2020/12/10 05:47:54;;;;;;;42.17;21.98;;;;;;;-2.39;100.00;100033.59;10174932;29;20052;-71
2020/12/10 05:53:05;;;;;;;46.38;25.27;;;;;;;-2.40;100.00;100049.91;10173513;29;20048;-72
2020/12/10 05:58:07;;;;;;;47.75;26.40;;;;;;;-2.40;100.00;100049.06;10174999;29;20040;-71
2020/12/10 06:03:09;;;;;;;48.03;25.55;;;;;;;-2.53;100.00;100055.97;10176755;29;20048;-71
2020/12/10 06:08:10;;;;;;;42.92;25.48;;;;;;;-2.67;100.00;100045.63;10174794;29;20484;-71
2020/12/10 06:13:11;;;;;;;40.95;21.67;;;;;;;-2.59;100.00;100058.50;10176851;29;20040;-71
2020/12/10 06:18:15;;;;;;;35.92;20.40;;;;;;;-2.63;100.00;100053.38;10177340;29;20114;-71
2020/12/10 06:23:27;;;;;;;40.58;23.83;;;;;;;-2.68;100.00;100048.22;10177641;29;20062;-71
2020/12/10 06:28:28;;;;;;;40.65;22.58;;;;;;;-2.74;100.00;100049.06;10175435;29;20060;-71
2020/12/10 06:33:40;;;;;;;37.42;20.98;;;;;;;-2.89;100.00;100043.91;10173010;29;20056;-71
2020/12/10 06:38:43;;;;;;;40.25;22.85;;;;;;;-2.94;100.00;100048.22;10172314;29;20051;-72
2020/12/10 06:43:44;;;;;;;35.22;20.67;;;;;;;-2.99;100.00;100051.63;10168797;29;20051;-72
2020/12/10 06:48:50;;;;;;;43.67;24.77;;;;;;;-2.86;100.00;100055.94;10175457;29;20044;-73
2020/12/10 06:54:00;;;;;;;45.88;25.20;;;;;;;-2.88;100.00;100053.34;10158310;29;20499;-72
2020/12/10 06:59:03;;;;;;;45.72;24.88;;;;;;;-2.98;100.00;100056.78;10167931;29;20068;-70
2020/12/10 07:09:27;;;;;;;40.38;22.98;;;;;;;-2.93;100.00;100061.97;10174378;29;20048;-70
2020/12/10 07:14:32;;;;;;;41.20;23.70;;;;;;;-2.68;100.00;100079.16;10172538;29;20083;-70
2020/12/10 07:19:33;;;;;;;46.33;23.77;;;;;;;-2.62;100.00;100086.03;10174304;29;20131;-70
2020/12/10 07:24:34;;;;;;;40.40;23.95;;;;;;;-2.68;100.00;100094.63;10173276;29;20051;-70
2020/12/10 07:29:35;;;;;;;41.60;24.65;;;;;;;-2.48;100.00;100097.19;10171836;29;20408;-70
2020/12/10 07:34:41;;;;;;;45.67;25.15;;;;;;;-2.41;100.00;100089.47;10172587;29;20051;-71
2020/12/10 07:39:42;;;;;;;39.90;24.27;;;;;;;-2.25;100.00;100099.75;10173416;29;20051;-71
2020/12/10 07:44:44;;;;;;;44.28;25.27;;;;;;;-2.24;100.00;100088.59;10172492;29;20118;-70
2020/12/10 07:49:45;;;;;;;41.30;23.85;;;;;;;-2.08;100.00;100109.22;10172051;29;20484;-71
2020/12/10 07:54:48;;;;;;;40.15;24.23;;;;;;;-1.95;100.00;100099.75;10173974;29;20036;-71
2020/12/10 07:59:57;;;;;;;38.55;23.40;;;;;;;-1.70;100.00;100085.06;10172940;29;20043;-70
2020/12/10 08:04:58;;;;;;;37.40;23.20;;;;;;;-1.26;100.00;100101.25;10173460;29;20051;-70
2020/12/10 08:09:59;;;;;;;32.15;20.52;;;;;;;-0.53;100.00;100092.16;10173376;29;20419;-70
2020/12/10 08:15:00;;;;;;;37.28;23.83;;;;;;;0.17;100.00;100066.47;10174889;29;20048;-70
2020/12/10 08:20:01;;;;;;;30.70;20.17;;;;;;;0.71;100.00;100056.31;10180688;29;20439;-70
2020/12/10 08:25:14;;;;;;;32.38;22.40;;;;;;;1.32;100.00;100060.66;10180186;29;20056;-70
2020/12/10 08:30:15;;;;;;;33.38;20.98;;;;;;;2.02;100.00;100042.09;10177252;29;20052;-68
2020/12/10 08:35:17;;;;;;;29.38;21.85;;;;;;;2.95;100.00;100048.00;10178358;29;20800;-69
2020/12/10 08:40:24;;;;;;;31.25;22.52;;;;;;;3.35;100.00;100033.16;10178791;29;20051;-69
2020/12/10 08:45:34;;;;;;;27.80;19.60;;;;;;;2.46;100.00;100010.06;10178605;29;20048;-68
2020/12/10 08:50:35;;;;;;;31.40;22.58;;;;;;;1.61;100.00;100013.44;10179453;29;20456;-68
2020/12/10 08:55:38;;;;;;;31.70;22.92;;;;;;;0.35;100.00;99972.13;10176376;29;20389;-68
2020/12/10 09:00:39;;;;;;;35.15;24.80;;;;;;;0.02;100.00;99985.50;10177690;29;20048;-68
2020/12/10 09:05:41;;;;;;;33.58;24.00;;;;;;;-0.02;100.00;99990.75;10177065;29;20127;-71
2020/12/10 09:10:43;;;;;;;30.15;20.75;;;;;;;2.41;100.00;100039.63;10178064;29;20099;-71
2020/12/10 09:15:44;;;;;;;31.70;21.80;;;;;;;2.91;100.00;100035.97;10177994;29;20040;-70
2020/12/10 09:20:45;;;;;;;31.33;22.35;;;;;;;3.12;100.00;100026.81;10177961;29;20040;-71
2020/12/10 09:25:46;;;;;;;31.15;22.88;;;;;;;3.57;100.00;100010.09;10175759;29;20071;-70
2020/12/10 09:30:48;;;;;;;28.45;20.40;;;;;;;3.35;100.00;100003.69;10177485;29;20060;-72
2020/12/10 09:35:49;;;;;;;29.88;20.45;;;;;;;2.45;100.00;100008.34;10177577;29;20416;-70
2020/12/10 09:40:50;;;;;;;26.90;20.15;;;;;;;3.22;100.00;99991.88;10176659;29;20131;-69
2020/12/10 09:45:59;;;;;;;23.83;17.95;;;;;;;3.56;100.00;99990.13;10178021;29;20055;-70
2020/12/10 09:51:00;;;;;;;27.38;19.65;;;;;;;4.47;100.00;100011.09;10176593;29;20100;-69
2020/12/10 10:01:18;;;;;;;23.80;17.88;;;;;;;4.04;100.00;99989.72;10177591;29;20066;-69
2020/12/10 10:06:19;;;;;;;26.50;17.02;;;;;;;4.37;98.05;99998.34;10175769;29;20055;-69
2020/12/10 10:11:20;;;;;;;22.70;16.10;;;;;;;3.71;100.00;99984.53;10175480;29;20044;-70
2020/12/10 10:16:27;;;;;;;22.15;15.95;;;;;;;3.99;100.00;99984.66;10175322;29;20528;-69
2020/12/10 10:21:29;;;;;;;24.25;17.67;;;;;;;4.57;100.00;99998.63;10176546;29;20485;-69
2020/12/10 10:26:30;;;;;;;25.08;16.70;;;;;;;4.83;99.90;99988.28;10169544;29;20051;-70
2020/12/10 10:31:32;;;;;;;23.05;15.80;;;;;;;5.86;90.16;99991.00;10166137;29;20052;-69
2020/12/10 10:36:33;;;;;;;23.30;16.73;;;;;;;3.65;100.00;99936.97;10148048;29;20533;-69
2020/12/10 10:41:45;;;;;;;21.30;15.13;;;;;;;2.84;100.00;99927.75;10171977;29;20062;-70
2020/12/10 10:46:46;;;;;;;25.67;15.90;;;;;;;2.02;100.00;99924.34;10135385;29;20056;-69
2020/12/10 10:51:48;;;;;;;23.27;16.00;;;;;;;1.35;100.00;99915.28;10166672;29;20100;-70
2020/12/10 10:56:49;;;;;;;23.58;15.48;;;;;;;1.03;100.00;99913.25;10163998;29;20048;-70
2020/12/10 11:01:51;;;;;;;25.63;16.20;;;;;;;1.28;100.00;99922.31;10157868;29;20044;-69
2020/12/10 11:06:52;;;;;;;24.27;16.60;;;;;;;1.16;100.00;99908.72;10172072;29;20519;-68
2020/12/10 11:11:54;;;;;;;26.10;17.25;;;;;;;1.24;100.00;99920.66;10174612;29;20055;-68
2020/12/10 11:16:57;;;;;;;24.27;16.05;;;;;;;1.24;100.00;99914.63;10175144;29;20044;-68
2020/12/10 11:22:00;;;;;;;20.13;15.00;;;;;;;1.28;100.00;99914.53;10173962;29;20063;-68
2020/12/10 11:27:02;;;;;;;25.88;17.48;;;;;;;1.35;100.00;99916.13;10174014;29;20052;-68
2020/12/10 11:32:03;;;;;;;22.50;15.80;;;;;;;1.66;100.00;99913.84;10175132;29;20506;-68
2020/12/10 11:37:04;;;;;;;23.10;16.92;;;;;;;1.64;100.00;99907.81;10173843;29;20040;-68
2020/12/10 11:42:05;;;;;;;25.48;17.80;;;;;;;1.76;100.00;99911.88;10174724;29;20491;-68
2020/12/10 11:47:07;;;;;;;25.17;16.23;;;;;;;1.47;100.00;99887.38;10173256;29;20051;-68
2020/12/10 11:52:09;;;;;;;26.73;17.23;;;;;;;1.39;100.00;99888.41;10181872;29;20052;-69
2020/12/10 11:57:10;;;;;;;23.17;14.82;;;;;;;1.31;100.00;99885.09;10180230;29;20396;-68
2020/12/10 12:02:11;;;;;;;24.00;15.60;;;;;;;1.22;100.00;99877.47;10180928;29;20036;-68
2020/12/10 12:07:12;;;;;;;22.65;15.80;;;;;;;1.14;100.00;99881.06;10182315;29;20051;-68
2020/12/10 12:12:13;;;;;;;23.15;14.90;;;;;;;1.09;100.00;99869.88;10180189;29;20055;-68
2020/12/10 12:17:14;;;;;;;24.65;17.10;;;;;;;1.15;100.00;99881.91;10177610;29;20051;-68
2020/12/10 12:22:16;;;;;;;24.55;16.42;;;;;;;1.29;100.00;99881.66;10178043;29;20070;-68
2020/12/10 12:27:17;;;;;;;22.95;15.13;;;;;;;1.30;100.00;99881.63;10178573;29;20507;-68
2020/12/10 12:32:18;;;;;;;20.77;14.65;;;;;;;1.21;100.00;99879.19;10180558;29;20051;-68
2020/12/10 12:37:19;;;;;;;21.88;14.55;;;;;;;1.08;100.00;99867.34;10178268;29;20044;-68
2020/12/10 12:42:21;;;;;;;23.23;15.85;;;;;;;1.21;100.00;99874.00;10178493;29;20055;-68
2020/12/10 12:47:22;;;;;;;23.73;15.77;;;;;;;1.17;100.00;99864.59;10181355;29;20051;-68
2020/12/10 12:52:25;;;;;;;24.33;16.08;;;;;;;1.22;100.00;99872.28;10181250;29;20052;-68
2020/12/10 12:57:26;;;;;;;26.27;17.58;;;;;;;1.31;100.00;99861.72;10179344;29;20132;-68
2020/12/10 13:02:27;;;;;;;23.48;15.13;;;;;;;1.33;100.00;99849.59;10177175;29;20052;-68
2020/12/10 13:07:29;;;;;;;24.67;15.70;;;;;;;1.19;100.00;99836.88;10179447;29;20208;-68
2020/12/10 13:12:30;;;;;;;21.75;14.68;;;;;;;1.21;100.00;99853.25;10179359;29;20051;-68
2020/12/10 13:17:31;;;;;;;23.85;15.27;;;;;;;1.29;100.00;99840.16;10178971;29;20396;-68
2020/12/10 13:22:33;;;;;;;24.52;16.13;;;;;;;1.14;100.00;99831.78;10179505;29;20131;-68
2020/12/10 13:27:34;;;;;;;22.40;15.48;;;;;;;1.09;100.00;99836.16;10178737;29;20052;-68
2020/12/10 13:32:35;;;;;;;22.52;15.73;;;;;;;1.07;100.00;99832.78;10176995;29;20047;-68
2020/12/10 13:37:36;;;;;;;21.80;14.68;;;;;;;1.19;100.00;99854.16;10178457;29;20427;-68
2020/12/10 13:42:37;;;;;;;24.17;15.32;;;;;;;1.22;100.00;99846.34;10178325;29;20044;-68
2020/12/10 13:47:38;;;;;;;20.48;13.77;;;;;;;1.10;100.00;99844.81;10177919;29;20044;-68
2020/12/10 13:52:40;;;;;;;22.85;14.02;;;;;;;0.93;100.00;99829.56;10174149;29;20048;-68
2020/12/10 13:57:41;;;;;;;22.95;14.65;;;;;;;0.84;100.00;99827.13;10177059;29;20051;-68
2020/12/10 14:02:42;;;;;;;22.02;16.45;;;;;;;0.88;100.00;99835.72;10176083;29;20055;-68
2020/12/10 14:07:43;;;;;;;22.75;14.57;;;;;;;0.92;100.00;99824.41;10176597;29;20047;-68
2020/12/10 14:12:44;;;;;;;24.25;13.32;;;;;;;0.87;100.00;99821.88;10176736;29;20507;-68
2020/12/10 14:17:45;;;;;;;22.95;14.77;;;;;;;0.94;100.00;99820.03;10177183;29;20036;-68
2020/12/10 14:22:46;;;;;;;20.08;13.43;;;;;;;0.83;100.00;99817.66;10174769;29;20047;-68
2020/12/10 14:27:47;;;;;;;20.15;13.52;;;;;;;0.97;100.00;99828.63;10158557;29;20072;-68
2020/12/10 14:32:48;;;;;;;19.42;14.02;;;;;;;0.91;100.00;99818.38;10141832;29;20053;-68
2020/12/10 14:37:50;;;;;;;20.63;13.57;;;;;;;0.91;100.00;99815.78;10171562;29;20051;-68
2020/12/10 14:42:51;;;;;;;19.20;12.80;;;;;;;0.99;100.00;99826.00;10174437;29;20056;-68
2020/12/10 14:47:52;;;;;;;21.15;13.57;;;;;;;0.93;100.00;99833.88;10173972;29;20411;-68
2020/12/10 14:52:53;;;;;;;20.63;14.35;;;;;;;0.84;100.00;99824.53;10172366;29;20044;-69
2020/12/10 14:57:54;;;;;;;20.42;14.35;;;;;;;0.83;100.00;99840.13;10173167;29;20127;-69
2020/12/10 15:02:55;;;;;;;20.42;14.07;;;;;;;0.82;100.00;99848.78;10174920;29;20054;-69
2020/12/10 15:07:57;;;;;;;22.70;14.00;;;;;;;0.81;100.00;99845.34;10173145;29;20036;-70
2020/12/10 15:12:58;;;;;;;18.55;12.57;;;;;;;0.85;100.00;99849.56;10173476;29;20492;-69
2020/12/10 15:17:59;;;;;;;19.63;12.98;;;;;;;0.77;100.00;99844.53;10173465;29;20048;-69
2020/12/10 15:23:01;;;;;;;19.88;12.10;;;;;;;0.85;100.00;99859.09;10192194;29;20047;-68
2020/12/10 15:28:02;;;;;;;16.88;12.45;;;;;;;0.83;100.00;99864.31;10171674;29;20056;-69
2020/12/10 15:33:03;;;;;;;20.33;12.90;;;;;;;0.79;100.00;99870.44;10171730;29;20044;-69
2020/12/10 15:38:05;;;;;;;17.23;12.80;;;;;;;0.74;100.00;99865.31;10171542;29;20422;-69
2020/12/10 15:43:06;;;;;;;23.67;11.95;;;;;;;0.63;100.00;99863.78;10169039;29;20068;-70
2020/12/10 15:48:08;;;;;;;21.42;13.48;;;;;;;0.68;100.00;99869.72;10171532;29;20047;-69
2020/12/10 15:53:09;;;;;;;18.17;12.98;;;;;;;0.65;100.00;99872.41;10171164;29;20052;-70
2020/12/10 15:58:11;;;;;;;17.55;12.57;;;;;;;0.56;100.00;99865.63;10167756;29;20044;-70
2020/12/10 16:03:12;;;;;;;17.15;11.15;;;;;;;0.65;100.00;99870.66;10171188;29;20048;-70
2020/12/10 16:08:13;;;;;;;19.25;12.57;;;;;;;0.58;100.00;99858.69;10169884;29;20507;-71
2020/12/10 16:13:14;;;;;;;17.85;12.13;;;;;;;0.65;100.00;99859.44;10174830;29;20056;-71
2020/12/10 16:18:15;;;;;;;17.38;11.57;;;;;;;0.55;100.00;99847.50;10189002;29;20457;-70
2020/12/10 16:23:16;;;;;;;18.25;11.68;;;;;;;0.42;100.00;99856.34;10177461;29;20062;-71
2020/12/10 16:28:18;;;;;;;17.75;12.05;;;;;;;0.46;100.00;99870.97;10166925;29;20060;-71
2020/12/10 16:33:19;;;;;;;16.83;11.43;;;;;;;0.45;100.00;99864.91;10169265;29;20048;-71
2020/12/10 16:38:22;;;;;;;17.17;11.32;;;;;;;0.36;100.00;99850.38;10173100;29;20041;-70
2020/12/10 16:43:23;;;;;;;18.00;12.75;;;;;;;0.29;100.00;99845.31;10170097;29;20159;-70
2020/12/10 16:48:25;;;;;;;16.80;11.80;;;;;;;0.24;100.00;99853.16;10154308;29;20138;-71
2020/12/10 16:53:27;;;;;;;16.65;10.65;;;;;;;0.24;100.00;99857.47;10152469;29;20048;-70
2020/12/10 16:58:30;;;;;;;16.30;12.38;;;;;;;0.20;100.00;99838.53;10151507;29;20063;-70
2020/12/10 17:03:31;;;;;;;17.77;11.45;;;;;;;0.19;100.00;99843.72;10149364;29;20040;-71
2020/12/10 17:08:32;;;;;;;15.95;11.15;;;;;;;0.27;100.00;99854.81;10146553;29;20060;-71
2020/12/10 17:13:35;;;;;;;18.52;12.60;;;;;;;0.14;100.00;99841.22;10153109;29;20044;-70
2020/12/10 17:18:37;;;;;;;16.65;10.68;;;;;;;0.21;100.00;99840.25;10132162;29;20036;-70
2020/12/10 17:23:38;;;;;;;15.75;11.25;;;;;;;0.18;100.00;99829.91;10162967;29;20055;-71
2020/12/10 17:28:39;;;;;;;15.68;11.63;;;;;;;0.17;100.00;99825.59;10163700;29;20066;-71
2020/12/10 17:33:40;;;;;;;17.10;12.57;;;;;;;0.13;100.00;99829.13;10175575;29;20584;-71
2020/12/10 17:38:42;;;;;;;18.27;12.68;;;;;;;0.08;100.00;99827.50;10175410;29;20480;-70
2020/12/10 17:43:43;;;;;;;18.17;13.82;;;;;;;-0.03;100.00;99820.75;10175077;29;20046;-69
2020/12/10 17:48:45;;;;;;;20.95;13.07;;;;;;;-0.02;100.00;99830.22;10176355;29;20059;-70
2020/12/10 17:53:48;;;;;;;15.95;11.60;;;;;;;-0.09;100.00;99819.97;10172770;29;20358;-70
2020/12/10 17:58:49;;;;;;;18.98;12.90;;;;;;;-0.18;100.00;99836.47;10173949;29;20518;-70
2020/12/10 18:03:50;;;;;;;20.10;14.13;;;;;;;-0.10;100.00;99832.06;10172707;29;20052;-70
2020/12/10 18:08:51;;;;;;;16.95;12.55;;;;;;;-0.12;100.00;99836.41;10171463;29;20040;-70
2020/12/10 18:13:52;;;;;;;19.55;12.40;;;;;;;-0.06;100.00;99825.09;10168492;29;20041;-70
2020/12/10 18:18:54;;;;;;;18.92;12.40;;;;;;;-0.08;100.00;99814.75;10174878;29;20500;-70
2020/12/10 18:23:55;;;;;;;18.38;13.32;;;;;;;-0.10;100.00;99824.28;10166568;29;20062;-70
2020/12/10 18:29:05;;;;;;;14.68;10.63;;;;;;;-0.06;100.00;99809.56;10169217;29;20051;-70
2020/12/10 18:34:07;;;;;;;17.15;12.40;;;;;;;-0.10;100.00;99808.75;10173734;29;20047;-70
2020/12/10 18:39:13;;;;;;;17.70;12.15;;;;;;;-0.14;100.00;99814.84;10173965;29;20047;-70
2020/12/10 18:44:14;;;;;;;18.60;13.35;;;;;;;-0.16;100.00;99814.00;10173800;29;20086;-70
2020/12/10 18:49:15;;;;;;;17.10;10.50;;;;;;;-0.13;100.00;99810.53;10167939;29;20071;-70
2020/12/10 18:54:16;;;;;;;17.20;11.32;;;;;;;-0.19;100.00;99790.78;10174476;29;20044;-70
2020/12/10 18:59:18;;;;;;;17.52;12.88;;;;;;;-0.23;100.00;99790.81;10173189;29;20510;-69
2020/12/10 19:04:19;;;;;;;15.40;11.93;;;;;;;-0.31;100.00;99793.50;10174415;29;20502;-69
2020/12/10 19:09:20;;;;;;;21.33;12.93;;;;;;;-0.37;100.00;99780.66;10174539;29;20044;-69
2020/12/10 19:14:22;;;;;;;18.30;12.52;;;;;;;-0.35;100.00;99781.50;10173076;29;20044;-69
2020/12/10 19:19:23;;;;;;;18.42;13.10;;;;;;;-0.45;100.00;99778.19;10174045;29;20040;-69
2020/12/10 19:24:24;;;;;;;17.60;13.35;;;;;;;-0.51;100.00;99767.06;10174965;29;20040;-69
2020/12/10 19:29:26;;;;;;;19.88;14.10;;;;;;;-0.44;100.00;99779.91;10173298;29;20071;-69
2020/12/10 19:34:27;;;;;;;22.25;14.57;;;;;;;-0.56;100.00;99789.53;10174462;29;20047;-70
2020/12/10 19:39:28;;;;;;;18.17;13.52;;;;;;;-0.60;100.00;99795.63;10174053;29;20051;-69
2020/12/10 19:44:30;;;;;;;19.42;14.63;;;;;;;-0.63;100.00;99804.28;10162037;29;20492;-70
2020/12/10 19:49:31;;;;;;;18.45;14.23;;;;;;;-0.69;100.00;99806.94;10154964;29;20052;-69
2020/12/10 19:54:32;;;;;;;19.05;13.23;;;;;;;-0.73;100.00;99794.03;10159914;29;20044;-69
2020/12/10 19:59:33;;;;;;;18.95;13.73;;;;;;;-0.75;100.00;99798.41;10168202;29;20044;-69
2020/12/10 20:04:34;;;;;;;17.55;11.60;;;;;;;-0.72;100.00;99800.94;10171307;29;20052;-69
2020/12/10 20:09:35;;;;;;;18.58;12.30;;;;;;;-0.75;100.00;99795.81;10169146;29;20451;-69
2020/12/10 20:14:36;;;;;;;18.48;13.57;;;;;;;-0.78;100.00;99799.28;10178297;29;20495;-69
2020/12/10 20:19:37;;;;;;;18.45;13.90;;;;;;;-0.70;100.00;99807.81;10179349;29;20051;-69
2020/12/10 20:24:39;;;;;;;17.90;13.18;;;;;;;-0.74;100.00;99788.00;10178272;29;20048;-69
2020/12/10 20:29:47;;;;;;;21.35;13.75;;;;;;;-0.67;100.00;99800.00;10177196;29;20064;-69
2020/12/10 20:34:48;;;;;;;21.05;13.15;;;;;;;-0.60;100.00;99787.88;10177669;29;20495;-69
2020/12/10 20:39:49;;;;;;;21.38;14.52;;;;;;;-0.64;100.00;99781.00;10179037;29;20052;-69
2020/12/10 20:44:50;;;;;;;22.08;13.85;;;;;;;-0.61;100.00;99783.56;10179656;29;20131;-70
2020/12/10 20:49:51;;;;;;;21.67;15.02;;;;;;;-0.68;100.00;99763.84;10179760;29;20041;-70
2020/12/10 20:54:52;;;;;;;21.30;14.02;;;;;;;-0.60;100.00;99768.03;10178867;29;20479;-70
2020/12/10 20:59:53;;;;;;;21.55;13.90;;;;;;;-0.51;100.00;99757.56;10178360;29;20040;-69
2020/12/10 21:04:59;;;;;;;23.00;16.48;;;;;;;-0.53;100.00;99746.38;10168668;29;20048;-68
2020/12/10 21:10:01;;;;;;;23.30;15.70;;;;;;;-0.58;100.00;99739.53;10176446;29;20048;-68
2020/12/10 21:15:03;;;;;;;23.85;15.20;;;;;;;-0.59;100.00;99732.69;10179272;29;20655;-68
2020/12/10 21:20:04;;;;;;;17.48;12.45;;;;;;;-0.64;100.00;99729.28;10178841;29;20619;-68
2020/12/10 21:25:05;;;;;;;21.52;14.90;;;;;;;-0.70;100.00;99716.44;10176249;29;20070;-69
2020/12/10 21:30:06;;;;;;;22.88;16.70;;;;;;;-0.61;100.00;99721.50;10175070;29;20051;-69
2020/12/10 21:35:07;;;;;;;20.05;13.18;;;;;;;-0.62;100.00;99720.63;10176418;29;20047;-69
2020/12/10 21:40:08;;;;;;;23.63;15.63;;;;;;;-0.62;100.00;99720.63;10149786;29;20044;-69
2020/12/10 21:45:10;;;;;;;20.35;12.73;;;;;;;-0.57;100.00;99715.38;10178090;29;20055;-68
2020/12/10 21:50:12;;;;;;;13.38;9.18;;;;;;;-0.60;100.00;99705.09;10177067;29;20046;-69
2020/12/10 21:55:13;;;;;;;19.63;11.60;;;;;;;-0.65;100.00;99712.91;10169923;29;20205;-68
2020/12/10 22:00:14;;;;;;;20.15;13.70;;;;;;;-0.69;100.00;99698.31;10173421;29;20044;-68
2020/12/10 22:05:16;;;;;;;20.90;12.68;;;;;;;-0.74;100.00;99689.75;10172150;29;20115;-69
2020/12/10 22:10:17;;;;;;;16.77;11.45;;;;;;;-0.67;100.00;99698.31;10176177;29;20040;-69
2020/12/10 22:15:19;;;;;;;19.75;13.55;;;;;;;-0.76;100.00;99686.34;10170947;29;20040;-69
2020/12/10 22:20:20;;;;;;;20.27;13.10;;;;;;;-0.84;100.00;99664.91;10175358;29;20052;-69
2020/12/10 22:25:21;;;;;;;16.85;11.70;;;;;;;-0.80;100.00;99658.81;10174794;29;20063;-69
2020/12/10 22:30:22;;;;;;;19.17;11.85;;;;;;;-0.77;100.00;99669.97;10177615;29;20048;-69
2020/12/10 22:35:23;;;;;;;24.30;15.80;;;;;;;-0.81;100.00;99659.69;10176530;29;20368;-70
2020/12/10 22:40:25;;;;;;;28.05;16.33;;;;;;;-0.86;100.00;99662.34;10174005;29;20044;-70
2020/12/10 22:45:26;;;;;;;22.67;15.13;;;;;;;-0.72;100.00;99677.66;10175191;29;20080;-70
2020/12/10 22:50:28;;;;;;;24.20;16.08;;;;;;;-0.71;100.00;99670.75;10177101;29;20388;-70